Time;durP1;ratioP1;P1;durP2;ratioP2;P2;SDS_P1;SDS_P2;PMS_P1;PMS_P2;Temp;Humidity;BMP_temperature;BMP_pressure;BME280_temperature;BME280_humidity;BME280_pressure;Samples;Min_cycle;Max_cycle;Signal;HPM_P1;HPM_P2
2020/12/12 00:01:42;;;;;;;13.07;8.30;;;5.30;91.10;;;;;;5053667;28;20048;-79
2020/12/12 00:04:07;;;;;;;12.60;7.47;;;5.30;91.10;;;;;;5053936;28;20025;-79
2020/12/12 00:06:33;;;;;;;13.40;8.23;;;5.30;91.10;;;;;;5053523;28;20021;-80
2020/12/12 00:08:59;;;;;;;13.67;8.57;;;5.40;91.10;;;;;;5053727;28;20409;-79
2020/12/12 00:11:24;;;;;;;13.37;8.03;;;5.30;91.10;;;;;;5053401;28;20028;-79
2020/12/12 00:13:50;;;;;;;12.37;7.90;;;5.40;91.10;;;;;;5053707;28;20032;-79
2020/12/12 00:16:17;;;;;;;13.17;8.00;;;5.40;91.10;;;;;;5052025;28;20083;-80
2020/12/12 00:18:44;;;;;;;12.50;7.87;;;5.40;91.10;;;;;;5053494;28;20025;-79
2020/12/12 00:21:12;;;;;;;12.03;7.37;;;5.40;91.00;;;;;;5051699;28;20478;-81
2020/12/12 00:23:38;;;;;;;11.37;7.30;;;5.40;91.00;;;;;;5053486;28;20024;-81
2020/12/12 00:26:04;;;;;;;11.83;7.77;;;5.40;91.10;;;;;;5053066;28;20366;-79
2020/12/12 00:28:31;;;;;;;12.97;7.70;;;5.50;91.10;;;;;;5053132;28;20029;-79
2020/12/12 00:30:58;;;;;;;11.83;7.07;;;5.40;91.00;;;;;;5053200;28;20120;-79
2020/12/12 00:33:24;;;;;;;11.07;6.90;;;5.50;91.00;;;;;;5053306;28;20025;-80
2020/12/12 00:35:49;;;;;;;10.93;6.57;;;5.50;91.00;;;;;;5053562;28;20457;-79
2020/12/12 00:38:15;;;;;;;8.90;6.30;;;5.50;91.00;;;;;;5053122;28;20114;-81
2020/12/12 00:40:41;;;;;;;10.43;6.60;;;5.50;90.90;;;;;;5053218;28;20029;-80
2020/12/12 00:43:06;;;;;;;10.17;6.37;;;5.50;91.20;;;;;;5053016;28;20056;-80
2020/12/12 00:45:32;;;;;;;10.33;6.30;;;5.50;91.00;;;;;;5053418;28;20032;-80
2020/12/12 00:47:57;;;;;;;11.70;7.27;;;5.50;90.90;;;;;;5051689;28;20061;-79
2020/12/12 00:50:23;;;;;;;10.20;6.70;;;5.50;90.80;;;;;;5051507;28;20048;-81
2020/12/12 00:52:50;;;;;;;9.83;6.23;;;5.60;90.90;;;;;;5052911;28;20424;-79
2020/12/12 00:55:16;;;;;;;10.67;6.90;;;5.60;90.80;;;;;;5053335;28;20405;-80
2020/12/12 00:57:41;;;;;;;10.20;6.80;;;5.60;90.90;;;;;;5053093;28;20063;-80
2020/12/12 01:00:07;;;;;;;10.93;6.80;;;5.60;90.90;;;;;;5054477;28;20068;-81
2020/12/12 01:02:33;;;;;;;11.80;7.03;;;5.60;90.80;;;;;;5053986;28;20033;-81
2020/12/12 01:05:00;;;;;;;11.53;7.07;;;5.60;90.80;;;;;;5055829;28;20024;-82
2020/12/12 01:07:26;;;;;;;10.87;6.57;;;5.60;90.90;;;;;;5057465;28;20020;-86
2020/12/12 01:09:52;;;;;;;11.00;6.70;;;5.60;90.90;;;;;;5054602;28;20036;-83
2020/12/12 01:12:18;;;;;;;11.33;6.70;;;5.60;91.20;;;;;;5054978;28;20370;-83
2020/12/12 01:14:45;;;;;;;11.57;7.50;;;5.60;92.00;;;;;;5054963;28;20121;-81
2020/12/12 01:17:11;;;;;;;13.30;7.70;;;5.60;91.90;;;;;;5055292;28;20431;-81
2020/12/12 01:19:36;;;;;;;10.77;6.93;;;5.60;92.10;;;;;;5054504;28;20025;-83
2020/12/12 01:22:02;;;;;;;11.10;7.43;;;5.60;92.30;;;;;;5053469;28;20052;-86
2020/12/12 01:24:28;;;;;;;11.63;7.47;;;5.60;92.20;;;;;;5054707;28;20449;-86
2020/12/12 01:26:54;;;;;;;11.63;7.37;;;5.60;92.30;;;;;;5059677;28;20045;-86
2020/12/12 01:29:19;;;;;;;11.17;6.80;;;5.60;92.20;;;;;;5054934;28;20044;-82
2020/12/12 01:31:48;;;;;;;12.47;7.53;;;5.60;92.40;;;;;;5054955;28;20037;-81
2020/12/12 01:34:15;;;;;;;11.20;6.80;;;5.60;92.40;;;;;;5056409;28;20085;-82
2020/12/12 01:36:40;;;;;;;11.53;8.03;;;5.60;92.40;;;;;;5055698;28;20464;-82
2020/12/12 01:39:06;;;;;;;10.80;7.17;;;5.60;92.40;;;;;;5055715;28;20036;-81
2020/12/12 01:41:32;;;;;;;10.93;7.30;;;5.60;92.30;;;;;;5056768;28;20041;-82
2020/12/12 01:43:57;;;;;;;11.03;6.70;;;5.60;92.30;;;;;;5055634;28;20033;-81
2020/12/12 01:46:25;;;;;;;11.27;7.37;;;5.60;92.40;;;;;;5056931;28;20382;-83
2020/12/12 01:48:53;;;;;;;12.53;7.40;;;5.60;92.20;;;;;;5057385;28;20025;-83
2020/12/12 01:51:20;;;;;;;10.17;6.90;;;5.60;92.20;;;;;;5056824;28;20021;-82
2020/12/12 01:53:48;;;;;;;9.93;6.57;;;5.60;92.10;;;;;;5068000;28;20021;-80
2020/12/12 01:56:15;;;;;;;11.13;7.43;;;5.70;92.10;;;;;;5068151;28;20021;-80
2020/12/12 01:58:41;;;;;;;12.00;7.20;;;5.70;92.10;;;;;;5064846;28;20028;-81
2020/12/12 02:01:09;;;;;;;9.90;6.57;;;5.70;92.00;;;;;;5053917;28;20033;-80
2020/12/12 02:03:39;;;;;;;11.20;7.50;;;5.60;92.00;;;;;;5055525;28;20060;-79
2020/12/12 02:06:05;;;;;;;11.27;6.87;;;5.70;91.90;;;;;;5056347;28;20082;-79
2020/12/12 02:08:31;;;;;;;11.53;6.93;;;5.70;91.90;;;;;;5054886;28;20084;-79
2020/12/12 02:11:00;;;;;;;11.67;7.33;;;5.70;91.80;;;;;;5054513;28;20044;-79
2020/12/12 02:13:26;;;;;;;11.15;7.53;;;5.70;91.70;;;;;;5052750;28;20052;-80
2020/12/12 02:15:51;;;;;;;11.70;7.50;;;5.70;91.70;;;;;;5053005;28;20056;-79
2020/12/12 02:18:19;;;;;;;11.53;7.23;;;5.70;91.70;;;;;;5053735;28;20025;-79
2020/12/12 02:20:56;;;;;;;10.70;6.87;;;5.70;91.60;;;;;;5052457;28;20025;-81
2020/12/12 02:23:23;;;;;;;10.27;6.80;;;5.70;91.60;;;;;;5051432;28;20025;-83
2020/12/12 02:25:49;;;;;;;11.87;7.80;;;5.70;91.50;;;;;;5051535;28;20074;-80
2020/12/12 02:28:19;;;;;;;11.47;7.50;;;5.70;91.40;;;;;;5051486;28;20025;-80
2020/12/12 02:30:44;;;;;;;11.83;7.40;;;5.80;91.30;;;;;;5050558;28;20044;-80
2020/12/12 02:33:10;;;;;;;12.03;7.70;;;5.80;91.40;;;;;;5051150;28;20060;-80
2020/12/12 02:35:36;;;;;;;12.07;7.57;;;5.70;91.20;;;;;;5050964;28;20025;-79
2020/12/12 02:38:02;;;;;;;11.53;7.37;;;5.80;91.40;;;;;;5053312;28;20033;-82
2020/12/12 02:40:27;;;;;;;12.03;7.73;;;5.80;91.40;;;;;;5052677;28;20416;-81
2020/12/12 02:42:53;;;;;;;12.07;7.00;;;5.80;91.30;;;;;;5052559;28;20029;-81
2020/12/12 02:45:19;;;;;;;12.67;7.37;;;5.80;91.30;;;;;;5054661;28;20086;-79
2020/12/12 02:47:46;;;;;;;10.97;7.47;;;5.80;91.30;;;;;;5055744;28;20100;-79
2020/12/12 02:50:13;;;;;;;10.57;7.40;;;5.80;91.20;;;;;;5053766;28;20412;-79
2020/12/12 02:52:40;;;;;;;10.07;6.87;;;5.80;91.10;;;;;;5055094;28;20029;-80
2020/12/12 02:55:08;;;;;;;10.90;6.97;;;5.80;91.20;;;;;;5054994;28;20063;-79
2020/12/12 02:57:35;;;;;;;11.53;7.33;;;5.80;91.20;;;;;;5054964;28;20462;-79
2020/12/12 03:00:01;;;;;;;9.73;6.77;;;5.80;91.10;;;;;;5056181;28;20044;-79
2020/12/12 03:02:26;;;;;;;11.80;6.90;;;5.80;91.20;;;;;;5054741;28;20029;-79
2020/12/12 03:04:52;;;;;;;11.27;7.10;;;5.90;91.10;;;;;;5055575;28;20048;-79
2020/12/12 03:07:19;;;;;;;9.87;6.60;;;5.90;91.10;;;;;;5052760;28;20124;-79
2020/12/12 03:09:44;;;;;;;10.73;6.43;;;5.90;91.20;;;;;;5054572;28;20036;-79
2020/12/12 03:12:10;;;;;;;10.53;6.87;;;5.90;91.10;;;;;;5054823;28;20029;-80
2020/12/12 03:14:36;;;;;;;9.70;6.53;;;5.90;91.10;;;;;;5055184;28;20037;-79
2020/12/12 03:17:01;;;;;;;10.27;6.97;;;5.90;91.10;;;;;;5053292;28;20469;-79
2020/12/12 03:19:27;;;;;;;9.73;6.37;;;5.90;91.10;;;;;;5055364;28;20025;-79
2020/12/12 03:21:52;;;;;;;9.10;6.37;;;5.90;91.00;;;;;;5054336;28;20102;-79
2020/12/12 03:24:18;;;;;;;9.67;6.67;;;6.00;91.10;;;;;;5054091;28;20112;-79
2020/12/12 03:26:45;;;;;;;11.17;6.07;;;6.00;91.10;;;;;;5053879;28;20059;-79
2020/12/12 03:29:10;;;;;;;10.40;6.37;;;5.90;91.00;;;;;;5053959;28;20028;-80
2020/12/12 03:31:36;;;;;;;10.37;6.40;;;6.00;91.10;;;;;;5053472;28;20089;-81
2020/12/12 03:34:02;;;;;;;10.07;6.70;;;6.00;91.00;;;;;;5055107;28;20108;-82
2020/12/12 03:36:27;;;;;;;9.60;6.27;;;6.00;91.00;;;;;;5053443;28;20151;-82
2020/12/12 03:38:53;;;;;;;9.67;6.43;;;6.00;91.00;;;;;;5055185;28;20029;-83
2020/12/12 03:41:19;;;;;;;9.67;6.30;;;6.00;91.00;;;;;;5054926;28;20033;-81
2020/12/12 03:43:44;;;;;;;10.30;6.37;;;6.00;91.00;;;;;;5054861;28;20071;-81
2020/12/12 03:46:10;;;;;;;10.70;6.80;;;6.00;91.10;;;;;;5054866;28;20043;-82
2020/12/12 03:48:35;;;;;;;10.70;6.60;;;6.00;91.20;;;;;;5055137;28;20138;-81
2020/12/12 03:51:01;;;;;;;11.57;6.13;;;6.00;91.10;;;;;;5054593;28;20107;-81
2020/12/12 03:53:27;;;;;;;11.53;7.00;;;6.10;91.20;;;;;;5054290;28;20037;-80
2020/12/12 03:55:52;;;;;;;10.90;6.97;;;6.10;91.10;;;;;;5054667;28;20025;-81
2020/12/12 03:58:18;;;;;;;11.93;6.90;;;6.10;91.10;;;;;;5054547;28;20021;-82
2020/12/12 04:00:43;;;;;;;10.60;6.60;;;6.10;91.10;;;;;;5054813;28;20075;-82
2020/12/12 04:03:09;;;;;;;11.30;6.93;;;6.10;91.10;;;;;;5054188;28;20492;-82
2020/12/12 04:05:35;;;;;;;11.07;7.20;;;6.10;91.00;;;;;;5054756;28;20057;-81
2020/12/12 04:08:00;;;;;;;10.93;6.83;;;6.10;91.00;;;;;;5054210;28;20524;-82
2020/12/12 04:10:26;;;;;;;11.83;6.70;;;6.10;91.10;;;;;;5054633;28;20128;-83
2020/12/12 04:12:52;;;;;;;12.07;6.70;;;6.10;91.00;;;;;;5054981;28;20029;-82
2020/12/12 04:15:17;;;;;;;11.57;7.40;;;6.10;91.00;;;;;;5054712;28;20029;-81
2020/12/12 04:17:43;;;;;;;10.73;6.77;;;6.10;91.00;;;;;;5054801;28;20029;-83
2020/12/12 04:20:08;;;;;;;10.97;6.70;;;6.10;91.00;;;;;;5054509;28;20622;-82
2020/12/12 04:22:34;;;;;;;11.00;7.07;;;6.10;91.00;;;;;;5054281;28;20029;-82
2020/12/12 04:25:00;;;;;;;11.30;7.10;;;6.10;91.00;;;;;;5052786;28;20021;-82
2020/12/12 04:27:25;;;;;;;10.27;7.13;;;6.10;91.00;;;;;;5054234;28;20032;-81
2020/12/12 04:29:55;;;;;;;10.77;7.10;;;6.10;91.00;;;;;;5054730;28;20504;-82
2020/12/12 04:32:20;;;;;;;11.83;7.57;;;6.10;91.00;;;;;;5054599;28;20032;-83
2020/12/12 04:34:46;;;;;;;11.37;6.97;;;6.10;91.10;;;;;;5056614;28;20119;-80
2020/12/12 04:37:11;;;;;;;12.73;7.67;;;6.20;91.10;;;;;;5058542;28;20462;-80
2020/12/12 04:39:37;;;;;;;11.40;7.37;;;6.10;91.00;;;;;;5058387;28;20108;-79
2020/12/12 04:42:04;;;;;;;11.73;6.80;;;6.20;91.10;;;;;;5057932;28;20029;-79
2020/12/12 04:44:30;;;;;;;11.10;7.60;;;6.20;91.10;;;;;;5055326;28;20151;-81
2020/12/12 04:46:57;;;;;;;12.07;7.40;;;6.20;91.20;;;;;;5058287;28;20112;-80
2020/12/12 04:49:22;;;;;;;10.67;7.30;;;6.20;91.20;;;;;;5058380;28;20087;-79
2020/12/12 04:51:48;;;;;;;11.73;7.57;;;6.20;91.40;;;;;;5057853;28;20025;-80
2020/12/12 04:54:18;;;;;;;12.73;8.03;;;6.20;91.40;;;;;;5059441;28;20071;-80
2020/12/12 04:56:45;;;;;;;12.87;8.30;;;6.20;91.60;;;;;;5059469;28;20025;-79
2020/12/12 04:59:12;;;;;;;14.50;8.93;;;6.20;91.60;;;;;;5058819;28;20029;-79
2020/12/12 05:01:38;;;;;;;13.97;8.73;;;6.20;91.60;;;;;;5058354;28;20041;-79
2020/12/12 05:04:06;;;;;;;14.60;9.20;;;6.20;91.50;;;;;;5059296;28;20155;-79
2020/12/12 05:06:32;;;;;;;13.97;9.03;;;6.20;91.60;;;;;;5058328;28;20025;-80
2020/12/12 05:08:58;;;;;;;14.63;8.77;;;6.20;91.60;;;;;;5058440;28;20048;-79
2020/12/12 05:11:24;;;;;;;13.50;9.07;;;6.20;91.70;;;;;;5052922;28;20466;-81
2020/12/12 05:13:50;;;;;;;15.47;9.63;;;6.20;91.70;;;;;;5053445;28;20462;-81
2020/12/12 05:16:18;;;;;;;16.83;9.53;;;6.20;91.80;;;;;;5053145;28;20107;-80
2020/12/12 05:18:44;;;;;;;15.30;9.37;;;6.20;91.90;;;;;;5053397;28;20052;-80
2020/12/12 05:21:11;;;;;;;16.03;10.13;;;6.20;92.00;;;;;;5051618;28;20032;-80
2020/12/12 05:23:38;;;;;;;14.53;9.60;;;6.20;92.10;;;;;;5052760;28;20021;-81
2020/12/12 05:26:04;;;;;;;17.13;10.77;;;6.20;92.30;;;;;;5053071;28;20020;-82
2020/12/12 05:28:30;;;;;;;17.27;10.37;;;6.20;92.40;;;;;;5052737;28;20481;-85
2020/12/12 05:30:55;;;;;;;16.73;10.57;;;6.10;92.50;;;;;;5052100;28;20032;-83
2020/12/12 05:33:23;;;;;;;18.90;11.30;;;6.20;92.80;;;;;;5052942;28;20330;-81
2020/12/12 05:35:50;;;;;;;18.20;11.23;;;6.20;92.90;;;;;;5052776;28;20024;-80
2020/12/12 05:38:16;;;;;;;18.57;11.37;;;6.10;93.10;;;;;;5052605;28;20463;-81
2020/12/12 05:40:43;;;;;;;17.13;10.83;;;6.10;93.20;;;;;;5052863;28;20048;-81
2020/12/12 05:43:12;;;;;;;18.50;11.13;;;6.10;93.30;;;;;;5052178;28;20036;-80
2020/12/12 05:45:40;;;;;;;18.07;11.47;;;6.10;93.40;;;;;;5052972;28;20050;-81
2020/12/12 05:48:07;;;;;;;19.17;11.30;;;6.10;93.40;;;;;;5053404;28;20029;-80
2020/12/12 05:50:33;;;;;;;19.67;11.57;;;6.10;93.40;;;;;;5052597;28;20091;-86
2020/12/12 05:52:59;;;;;;;19.37;11.70;;;6.10;93.30;;;;;;5051315;28;20123;-81
2020/12/12 05:55:28;;;;;;;18.20;10.83;;;6.10;93.30;;;;;;5055235;28;20075;-80
2020/12/12 05:57:55;;;;;;;19.67;11.90;;;6.10;93.40;;;;;;5049821;28;20017;-80
2020/12/12 06:00:26;;;;;;;20.07;11.70;;;6.10;93.60;;;;;;5055844;28;20401;-80
2020/12/12 06:02:57;;;;;;;22.60;12.90;;;6.10;93.40;;;;;;5054283;28;20116;-81
2020/12/12 06:05:28;;;;;;;21.13;12.50;;;6.20;93.60;;;;;;5052276;28;20115;-80
2020/12/12 06:08:05;;;;;;;17.63;11.10;;;6.10;93.60;;;;;;5050906;28;20029;-80
2020/12/12 06:10:33;;;;;;;20.50;12.10;;;6.20;93.50;;;;;;5051633;28;20039;-82
2020/12/12 06:13:04;;;;;;;22.37;12.87;;;6.20;93.60;;;;;;5050504;28;20021;-80
2020/12/12 06:15:38;;;;;;;19.87;11.70;;;6.10;93.70;;;;;;5052258;28;20323;-79
2020/12/12 06:18:09;;;;;;;21.73;12.13;;;6.10;93.70;;;;;;5052610;28;20017;-80
2020/12/12 06:20:39;;;;;;;20.13;12.47;;;6.10;93.60;;;;;;5052592;28;20028;-79
2020/12/12 06:23:05;;;;;;;;;;;6.10;93.70;;;;;;5051840;28;20067;-81
2020/12/12 06:25:31;;;;;;;20.50;12.07;;;6.10;93.60;;;;;;5052167;28;19909;-79
2020/12/12 06:27:57;;;;;;;23.27;12.73;;;6.20;93.60;;;;;;5051287;28;20415;-80
2020/12/12 06:30:25;;;;;;;21.13;13.07;;;6.10;93.70;;;;;;5050556;28;20112;-79
2020/12/12 06:33:01;;;;;;;22.03;13.43;;;6.20;93.90;;;;;;5050445;28;20029;-80
2020/12/12 06:35:34;;;;;;;20.53;12.03;;;6.20;93.60;;;;;;5049393;28;20021;-80
2020/12/12 06:38:18;;;;;;;24.73;13.17;;;6.10;93.60;;;;;;5050805;28;20017;-79
2020/12/12 06:40:44;;;;;;;22.70;12.63;;;6.20;93.60;;;;;;5050845;28;20063;-79
2020/12/12 06:43:30;;;;;;;21.77;13.27;;;6.20;93.60;;;;;;5050749;28;20021;-80
2020/12/12 06:45:56;;;;;;;20.77;12.37;;;6.20;93.60;;;;;;5051230;28;20414;-81
2020/12/12 06:48:24;;;;;;;22.07;12.57;;;6.20;93.60;;;;;;5050858;28;20029;-81
2020/12/12 06:50:50;;;;;;;24.00;12.77;;;6.20;93.50;;;;;;5050626;28;20386;-81
2020/12/12 06:53:21;;;;;;;21.87;11.97;;;6.20;93.60;;;;;;5049374;28;20477;-81
2020/12/12 06:56:14;;;;;;;20.23;12.13;;;6.20;93.80;;;;;;5052049;28;20029;-79
2020/12/12 06:58:42;;;;;;;21.53;12.50;;;6.20;93.40;;;;;;5055372;28;20437;-79
2020/12/12 07:01:27;;;;;;;24.80;12.93;;;6.20;93.50;;;;;;5054626;28;20031;-80
2020/12/12 07:04:01;;;;;;;19.87;12.00;;;6.20;93.40;;;;;;5054923;28;20029;-80
2020/12/12 07:06:33;;;;;;;22.30;12.40;;;6.20;93.40;;;;;;5055805;28;20043;-80
2020/12/12 07:09:00;;;;;;;19.50;11.50;;;6.20;93.50;;;;;;5056728;28;20033;-82
2020/12/12 07:11:27;;;;;;;23.83;13.57;;;6.30;93.50;;;;;;5062148;28;20043;-83
2020/12/12 07:13:54;;;;;;;21.23;12.80;;;6.20;93.40;;;;;;5056509;28;20025;-83
2020/12/12 07:16:21;;;;;;;21.73;12.60;;;6.30;93.50;;;;;;5056451;28;20139;-85
2020/12/12 07:18:48;;;;;;;21.93;12.60;;;6.30;93.50;;;;;;5059145;28;20330;-84
2020/12/12 07:21:14;;;;;;;23.60;13.77;;;6.20;93.60;;;;;;5059579;28;20040;-84
2020/12/12 07:23:40;;;;;;;23.43;13.77;;;6.30;93.60;;;;;;5060846;28;20029;-82
2020/12/12 07:26:07;;;;;;;22.07;13.20;;;6.30;93.80;;;;;;5059469;28;20063;-84
2020/12/12 07:28:33;;;;;;;24.50;13.77;;;6.30;93.70;;;;;;5057718;28;20041;-82
2020/12/12 07:31:00;;;;;;;21.27;12.70;;;6.30;93.70;;;;;;5056983;28;20086;-85
2020/12/12 07:33:26;;;;;;;28.93;15.53;;;6.30;93.60;;;;;;5055937;28;20025;-85
2020/12/12 07:35:52;;;;;;;26.13;15.37;;;6.40;97.10;;;;;;5057924;28;20013;-84
2020/12/12 07:38:17;;;;;;;25.50;14.83;;;6.40;94.80;;;;;;5059962;28;20540;-85
2020/12/12 07:40:43;;;;;;;25.97;14.97;;;6.40;94.60;;;;;;5054352;28;20025;-81
2020/12/12 07:43:09;;;;;;;24.67;13.67;;;6.40;94.30;;;;;;5056958;28;20138;-84
2020/12/12 07:48:09;;;;;;;22.87;13.47;;;6.40;94.20;;;;;;5054097;28;20057;-82
2020/12/12 07:50:36;;;;;;;22.33;13.37;;;6.40;94.90;;;;;;5054391;28;20102;-84
2020/12/12 07:53:13;;;;;;;23.40;13.17;;;6.40;94.40;;;;;;5053778;28;20491;-84
2020/12/12 07:55:52;;;;;;;23.73;13.30;;;6.40;94.10;;;;;;5054498;28;20101;-83
2020/12/12 07:58:31;;;;;;;21.48;12.93;;;6.40;94.00;;;;;;5053080;28;20017;-82
2020/12/12 08:01:06;;;;;;;23.00;12.53;;;6.40;93.80;;;;;;5051255;28;20151;-82
2020/12/12 08:03:42;;;;;;;23.73;13.33;;;6.40;93.90;;;;;;5052882;28;20438;-83
2020/12/12 08:06:09;;;;;;;22.97;13.70;;;6.40;94.10;;;;;;5053173;28;20552;-83
2020/12/12 08:08:36;;;;;;;26.33;14.60;;;6.40;93.90;;;;;;5053711;28;20107;-81
2020/12/12 08:11:05;;;;;;;24.87;13.60;;;6.40;93.80;;;;;;5054120;28;20172;-81
2020/12/12 08:13:31;;;;;;;32.63;17.33;;;6.40;93.80;;;;;;5054386;28;20025;-81
2020/12/12 08:16:21;;;;;;;35.13;19.03;;;6.40;93.80;;;;;;5053326;28;20061;-80
2020/12/12 08:18:46;;;;;;;28.60;16.20;;;6.40;93.80;;;;;;5053447;28;20021;-81
2020/12/12 08:21:17;;;;;;;24.67;14.93;;;6.40;93.70;;;;;;5053221;28;20483;-82
2020/12/12 08:23:44;;;;;;;25.43;14.80;;;6.40;93.80;;;;;;5053556;28;20021;-82
2020/12/12 08:26:19;;;;;;;21.30;12.97;;;6.40;93.60;;;;;;5053404;28;20504;-81
2020/12/12 08:28:45;;;;;;;20.83;12.43;;;6.40;93.70;;;;;;5053380;28;20025;-80
2020/12/12 08:31:16;;;;;;;22.87;13.73;;;6.40;93.60;;;;;;5052879;28;20442;-81
2020/12/12 08:33:44;;;;;;;25.87;14.03;;;6.40;93.60;;;;;;5053250;28;20192;-81
2020/12/12 08:36:23;;;;;;;21.13;12.23;;;6.40;93.70;;;;;;5052995;28;20024;-81
2020/12/12 08:38:54;;;;;;;19.38;12.00;;;6.40;93.60;;;;;;5053370;28;20025;-83
2020/12/12 08:41:20;;;;;;;23.13;13.57;;;6.40;93.60;;;;;;5051437;28;20039;-82
2020/12/12 08:43:46;;;;;;;21.53;13.03;;;6.40;93.60;;;;;;5052953;28;20025;-82
2020/12/12 08:46:16;;;;;;;21.80;13.33;;;6.40;93.70;;;;;;5051124;28;20465;-82
2020/12/12 08:48:43;;;;;;;22.60;13.55;;;6.40;93.70;;;;;;5052859;28;20025;-82
2020/12/12 08:51:10;;;;;;;21.27;12.63;;;6.50;93.80;;;;;;5052309;28;20062;-81
2020/12/12 08:53:54;;;;;;;23.67;13.90;;;6.50;93.80;;;;;;5052899;28;20021;-81
2020/12/12 08:56:23;;;;;;;21.93;13.27;;;6.50;93.90;;;;;;5053111;28;20021;-83
2020/12/12 08:58:57;;;;;;;20.45;12.48;;;6.50;93.90;;;;;;5053120;28;20017;-83
2020/12/12 09:01:43;;;;;;;20.17;12.77;;;6.50;93.80;;;;;;5053601;28;20040;-82
2020/12/12 09:04:09;;;;;;;23.13;13.33;;;6.50;93.80;;;;;;5052728;28;20033;-82
2020/12/12 09:06:41;;;;;;;20.40;12.73;;;6.50;93.80;;;;;;5052250;28;20043;-81
2020/12/12 09:09:11;;;;;;;22.53;12.83;;;6.50;94.00;;;;;;5052831;28;20035;-82
2020/12/12 09:11:39;;;;;;;20.40;12.17;;;6.50;93.90;;;;;;5052415;28;20031;-82
2020/12/12 09:14:05;;;;;;;19.97;12.57;;;6.50;93.90;;;;;;5052401;28;20032;-82
2020/12/12 09:16:31;;;;;;;19.33;12.30;;;6.50;93.90;;;;;;5052650;28;20021;-81
2020/12/12 09:18:57;;;;;;;23.57;13.27;;;6.50;93.90;;;;;;5052057;28;20079;-81
2020/12/12 09:21:24;;;;;;;20.67;12.70;;;6.50;93.90;;;;;;5052775;28;20031;-83
2020/12/12 09:23:49;;;;;;;24.93;13.30;;;6.50;93.90;;;;;;5052527;28;20029;-81
2020/12/12 09:26:15;;;;;;;19.73;11.93;;;6.50;93.90;;;;;;5052260;28;20029;-82
2020/12/12 09:28:41;;;;;;;20.87;12.57;;;6.60;93.90;;;;;;5051603;28;20060;-83
2020/12/12 09:31:07;;;;;;;21.63;12.87;;;6.60;93.80;;;;;;5051987;28;20406;-83
2020/12/12 09:33:33;;;;;;;20.60;12.70;;;6.50;93.80;;;;;;5052387;28;20029;-82
2020/12/12 09:35:59;;;;;;;20.73;12.90;;;6.50;93.80;;;;;;5052690;28;20021;-83
2020/12/12 09:38:25;;;;;;;20.30;12.97;;;6.70;93.90;;;;;;5052582;28;20025;-82
2020/12/12 09:40:50;;;;;;;21.70;12.73;;;6.60;93.80;;;;;;5052491;28;20370;-81
2020/12/12 09:43:17;;;;;;;20.80;12.87;;;6.60;93.80;;;;;;5052822;28;20025;-82
2020/12/12 09:45:47;;;;;;;27.63;13.33;;;6.60;93.80;;;;;;5052875;28;20035;-82
2020/12/12 09:48:13;;;;;;;20.42;12.55;;;6.60;93.70;;;;;;5052780;28;20040;-83
2020/12/12 09:50:39;;;;;;;20.40;12.07;;;6.60;93.80;;;;;;5052630;28;20036;-83
2020/12/12 09:53:08;;;;;;;20.63;12.97;;;6.70;93.80;;;;;;5055003;28;20107;-82
2020/12/12 09:55:36;;;;;;;19.85;12.20;;;6.70;93.90;;;;;;5060508;28;20112;-83
2020/12/12 09:58:06;;;;;;;19.53;12.43;;;6.70;93.80;;;;;;5060139;28;20028;-82
2020/12/12 10:00:33;;;;;;;21.27;12.53;;;6.70;93.70;;;;;;5054382;28;20350;-81
2020/12/12 10:02:59;;;;;;;18.47;11.67;;;6.70;93.70;;;;;;5052126;28;20029;-81
2020/12/12 10:05:25;;;;;;;21.00;12.83;;;6.70;93.70;;;;;;5052007;28;20037;-83
2020/12/12 10:07:55;;;;;;;20.07;12.50;;;6.70;93.80;;;;;;5051638;28;20059;-81
2020/12/12 10:10:21;;;;;;;19.83;11.97;;;6.70;93.80;;;;;;5051571;28;20032;-82
2020/12/12 10:12:46;;;;;;;22.10;12.80;;;6.70;93.70;;;;;;5053166;28;20029;-82
2020/12/12 10:15:17;;;;;;;19.67;12.10;;;6.70;93.80;;;;;;5055073;28;20389;-82
2020/12/12 10:17:43;;;;;;;20.23;12.47;;;6.70;93.90;;;;;;5053616;28;20108;-82
2020/12/12 10:20:08;;;;;;;20.10;12.10;;;6.70;94.00;;;;;;5053493;28;20110;-81
2020/12/12 10:22:34;;;;;;;21.73;12.63;;;6.70;94.00;;;;;;5052512;28;20094;-81
2020/12/12 10:24:59;;;;;;;18.50;11.43;;;6.70;94.20;;;;;;5053285;28;20037;-82
2020/12/12 10:27:25;;;;;;;22.57;11.57;;;6.70;94.20;;;;;;5053714;28;20037;-82
2020/12/12 10:29:51;;;;;;;19.33;11.80;;;6.70;94.20;;;;;;5052056;28;20079;-81
2020/12/12 10:32:16;;;;;;;20.50;12.67;;;6.70;94.30;;;;;;5052979;28;20423;-81
2020/12/12 10:34:42;;;;;;;19.43;11.73;;;6.70;94.20;;;;;;5053038;28;20402;-82
2020/12/12 10:37:08;;;;;;;18.33;11.00;;;6.80;94.30;;;;;;5052911;28;20028;-81
2020/12/12 10:39:42;;;;;;;18.77;11.53;;;6.70;94.20;;;;;;5051077;28;20025;-81
2020/12/12 10:42:08;;;;;;;17.57;11.07;;;6.70;94.10;;;;;;5052719;28;20028;-83
2020/12/12 10:44:34;;;;;;;18.30;11.90;;;6.80;94.30;;;;;;5052429;28;20033;-83
2020/12/12 10:46:59;;;;;;;17.53;10.97;;;6.80;94.20;;;;;;5053466;28;20413;-82
2020/12/12 10:49:25;;;;;;;16.90;10.63;;;6.80;94.30;;;;;;5052613;28;20108;-81
2020/12/12 10:51:55;;;;;;;17.40;10.90;;;6.80;94.50;;;;;;5053393;28;20031;-82
2020/12/12 10:54:21;;;;;;;;;;;6.80;94.20;;;;;;5053428;28;20524;-81
2020/12/12 10:56:47;;;;;;;19.63;11.37;;;6.90;94.20;;;;;;5052024;28;19958;-80
2020/12/12 10:59:13;;;;;;;18.83;10.93;;;6.90;94.20;;;;;;5052541;28;20516;-82
2020/12/12 11:01:39;;;;;;;17.87;11.00;;;6.90;94.10;;;;;;5050879;28;20033;-81
2020/12/12 11:04:06;;;;;;;18.77;11.20;;;6.90;94.10;;;;;;5054483;28;20083;-81
2020/12/12 11:06:35;;;;;;;19.80;11.03;;;6.90;94.10;;;;;;5052221;28;20045;-80
2020/12/12 11:09:01;;;;;;;18.55;11.32;;;7.00;94.20;;;;;;5053557;28;20032;-83
2020/12/12 11:11:27;;;;;;;21.70;13.00;;;7.00;94.10;;;;;;5052719;28;20497;-81
2020/12/12 11:13:53;;;;;;;20.07;12.00;;;7.00;94.30;;;;;;5051624;28;20029;-81
2020/12/12 11:16:20;;;;;;;20.80;12.20;;;7.00;94.00;;;;;;5051462;28;20502;-82
2020/12/12 11:18:50;;;;;;;19.20;11.43;;;7.00;94.10;;;;;;5051152;28;20025;-84
2020/12/12 11:21:20;;;;;;;19.93;11.97;;;7.00;94.10;;;;;;5049527;28;20501;-81
2020/12/12 11:23:46;;;;;;;19.70;10.90;;;7.00;94.00;;;;;;5050886;28;20025;-81
2020/12/12 11:26:13;;;;;;;22.00;11.20;;;7.00;94.10;;;;;;5051289;28;20060;-82
2020/12/12 11:28:40;;;;;;;22.17;12.13;;;7.10;94.10;;;;;;5052113;28;20021;-82
2020/12/12 11:31:07;;;;;;;20.60;12.17;;;7.10;94.10;;;;;;5051558;28;20029;-81
2020/12/12 11:33:35;;;;;;;19.27;11.73;;;7.10;94.10;;;;;;5050537;28;20041;-82
2020/12/12 11:36:15;;;;;;;18.75;11.10;;;7.10;94.20;;;;;;5051133;28;20534;-81
2020/12/12 11:41:28;;;;;;;43.83;17.53;;;7.10;94.20;;;;;;5051172;28;20021;-81
2020/12/12 11:44:17;;;;;;;21.47;11.23;;;7.10;94.20;;;;;;5051253;28;20028;-81
2020/12/12 11:46:50;;;;;;;18.75;11.10;;;7.10;94.20;;;;;;5050977;28;20021;-81
2020/12/12 11:49:17;;;;;;;20.23;11.77;;;7.10;94.30;;;;;;5050715;28;20108;-82
2020/12/12 11:51:42;;;;;;;22.17;12.20;;;7.10;94.20;;;;;;5050822;28;20029;-82
2020/12/12 11:54:08;;;;;;;20.83;11.67;;;7.20;94.30;;;;;;5054075;28;20064;-83
2020/12/12 11:56:34;;;;;;;18.97;11.87;;;7.20;94.30;;;;;;5053848;28;20113;-82
2020/12/12 11:58:59;;;;;;;20.07;11.90;;;7.20;94.30;;;;;;5054302;28;20077;-81
2020/12/12 12:01:27;;;;;;;24.27;13.00;;;7.20;94.20;;;;;;5054326;28;20445;-82
2020/12/12 12:03:54;;;;;;;20.17;11.33;;;7.20;94.30;;;;;;5054278;28;20155;-81
2020/12/12 12:06:24;;;;;;;21.77;11.80;;;7.20;94.30;;;;;;5054208;28;20036;-82
2020/12/12 12:11:31;;;;;;;19.23;11.15;;;7.20;94.20;;;;;;5054405;28;20476;-82
2020/12/12 12:14:03;;;;;;;18.50;10.83;;;7.20;94.20;;;;;;5054088;28;20037;-82
2020/12/12 12:16:35;;;;;;;18.73;10.73;;;7.30;94.20;;;;;;5054047;28;20078;-82
2020/12/12 12:19:14;;;;;;;18.53;10.33;;;7.20;94.20;;;;;;5054005;28;20021;-83
2020/12/12 12:21:42;;;;;;;20.52;11.32;;;7.30;94.10;;;;;;5054058;28;20036;-82
2020/12/12 12:24:09;;;;;;;19.37;10.80;;;7.30;94.20;;;;;;5055177;28;20112;-83
2020/12/12 12:26:36;;;;;;;19.13;11.53;;;7.30;94.20;;;;;;5053131;28;20032;-81
2020/12/12 12:29:11;;;;;;;22.60;12.13;;;7.30;94.30;;;;;;5053197;28;20033;-80
2020/12/12 12:31:37;;;;;;;22.67;11.70;;;7.30;94.20;;;;;;5052093;28;20028;-81
2020/12/12 12:34:03;;;;;;;18.87;11.00;;;7.30;94.20;;;;;;5053335;28;20028;-81
2020/12/12 12:36:30;;;;;;;20.67;12.03;;;7.30;94.20;;;;;;5052892;28;20032;-81
2020/12/12 12:38:57;;;;;;;22.37;12.13;;;7.30;94.30;;;;;;5052838;28;20044;-81
2020/12/12 12:41:26;;;;;;;21.67;11.30;;;7.30;94.30;;;;;;5053434;28;20021;-81
2020/12/12 12:43:52;;;;;;;21.80;11.75;;;7.30;94.30;;;;;;5052013;28;20616;-81
2020/12/12 12:46:21;;;;;;;21.73;11.70;;;7.30;94.20;;;;;;5053279;28;20075;-82
2020/12/12 12:48:48;;;;;;;22.83;12.00;;;7.30;94.30;;;;;;5053418;28;20029;-83
2020/12/12 12:51:14;;;;;;;22.47;12.10;;;7.30;94.30;;;;;;5053086;28;20040;-80
2020/12/12 12:53:39;;;;;;;24.63;12.07;;;7.30;94.30;;;;;;5053626;28;20029;-82